Manitou, Canada
Current Conditions -  °F | °C
As of 6:35 PM on Saturday 20 Dec 2014 (Local Time) from KD55 Reporting Station
Moderate Fog Moderate Fog  
Wind Chill: 19°   Ceiling: 100
Heat Index: 25°   Visibility: 0.5mi
Dew Point: 25°   Wind: 5mph
Humidity: 100%   Direction: 360°N
Pressure: 29.81"   Gusts: NA
Location:  49.23°N, 98.53°W
Report Text: KD55 210035Z AUTO 36004KT 1/2SM FZFG OVC001 M04/M04 A2981 RMK AO2
Loading
Personal Weather Stations






























Interactive Weather Map New forecast layout! Learn more

10-Day Weather Forecast

Advertisements
Track Severe Weather on mobile